Latest Weather Observations for Minlaton Airport

IDS60801

Issued at 4:35 pm CST Saturday 23 August 2014 (issued every 30 minutes, with the page automatically refreshed every 10 minutes)

About weather observations | Map of weather stations | Latest weather observations for SA | Other Formats
Station Details ID: 022031 Name: MINLATON AERO Lat: -34.75 Lon: 137.53 Height: 32.0 m
Data from the previous 72 hours. | See also: Recent months at Minlaton Airport
Date/Time
CST
Temp
°C
App
Temp
°C
Dew
Point
Rel
Hum
%
Delta-T
°C
Wind Press
QNH
hPa
Press
MSL
hPa
Rain
since 9 am
mm
Dir
 
Spd
km/h
Gust
km/h
Spd
kts
Gust
kts
23/04:30pm 14.4 10.1 9.4 72 2.6 W 22 30 12 16 1025.5 1025.6 0.0
23/04:00pm 14.7 9.2 9.1 69 2.8 W 28 35 15 19 1025.3 1025.4 0.0
23/03:30pm 15.0 9.8 8.9 67 3.1 W 26 37 14 20 1025.2 1025.3 0.0
23/03:00pm 15.2 8.9 9.1 67 3.1 W 32 41 17 22 1024.9 1025.0 0.0
23/02:30pm 15.6 9.4 9.3 66 3.2 W 32 41 17 22 1024.7 1024.8 0.0
23/02:00pm 15.7 9.5 9.4 66 3.3 W 32 43 17 23 1024.5 1024.6 0.0
23/01:30pm 15.7 9.4 9.1 65 3.4 W 32 41 17 22 1024.4 1024.5 0.0
23/01:00pm 15.7 9.5 9.4 66 3.3 W 32 44 17 24 1024.4 1024.5 0.0
23/12:30pm 16.0 10.0 10.1 68 3.1 W 32 41 17 22 1024.6 1024.7 0.0
23/12:00pm 15.9 9.8 9.8 67 3.2 W 32 39 17 21 1024.7 1024.8 0.0
23/11:30am 16.2 10.7 10.7 70 2.9 W 30 37 16 20 1024.7 1024.8 0.0
23/11:00am 15.6 9.4 9.9 69 3.0 W 33 43 18 23 1024.7 1024.8 0.0
23/10:30am 15.7 10.7 10.9 73 2.5 W 28 37 15 20 1024.3 1024.4 0.0
23/10:00am 15.1 11.6 12.2 83 1.6 W 22 30 12 16 1024.0 1024.1 0.0
23/09:30am 14.1 11.5 12.0 87 1.1 W 17 24 9 13 1023.7 1023.8 0.0
23/09:00am 13.9 10.7 11.8 87 1.1 W 20 30 11 16 1023.4 1023.5 0.0
23/08:30am 13.3 10.0 11.0 86 1.2 NW 19 26 10 14 1023.0 1023.1 0.0
23/08:00am 13.1 9.8 9.7 80 1.7 NNW 17 22 9 12 1022.6 1022.7 0.0
23/07:30am 12.4 8.5 8.7 78 1.8 N 19 26 10 14 1022.0 1022.1 0.0
23/07:00am 11.5 6.6 7.0 74 2.2 N 22 28 12 15 1021.6 1021.7 0.0
23/06:30am 11.3 5.8 6.0 70 2.5 N 24 33 13 18 1021.1 1021.2 0.0
23/06:00am 11.8 6.3 5.7 66 2.8 N 24 32 13 17 1020.9 1021.0 0.0
23/05:30am 13.1 7.5 5.5 60 3.5 N 24 30 13 16 1020.8 1020.9 0.0
23/05:00am 14.3 6.8 3.5 48 4.9 N 32 41 17 22 1020.2 1020.2 0.0
23/04:30am 14.5 7.0 3.3 47 5.0 N 32 43 17 23 1019.4 1019.4 0.0
23/04:00am 14.8 7.6 3.0 45 5.3 N 30 39 16 21 1019.4 1019.4 0.0
23/03:30am 14.4 8.0 3.2 47 5.0 N 26 35 14 19 1019.6 1019.6 0.0
23/03:00am 13.8 7.8 3.6 50 4.6 N 24 30 13 16 1019.6 1019.6 0.0
23/02:30am 14.1 8.1 3.3 48 4.8 N 24 35 13 19 1020.0 1020.0 0.0
23/02:00am 14.6 7.7 2.8 45 5.3 N 28 39 15 21 1020.0 1020.0 0.0
23/01:30am 14.6 7.7 2.8 45 5.3 N 28 37 15 20 1020.4 1020.4 0.0
23/01:00am 13.9 7.5 3.4 49 4.7 NNE 26 32 14 17 1020.7 1020.8 0.0
23/12:30am 14.0 7.7 3.5 49 4.7 NNE 26 33 14 18 1020.9 1021.0 0.0
23/12:00am 14.2 7.4 3.1 47 5.0 N 28 33 15 18 1021.0 1021.1 0.0
 
Date/Time
CST
Temp
°C
App
Temp
°C
Dew
Point
Rel
Hum
%
Delta-T
°C
Wind Press
QNH
hPa
Press
MSL
hPa
Rain
since 9 am
mm
Dir
 
Spd
km/h
Gust
km/h
Spd
kts
Gust
kts
22/11:30pm 14.8 7.9 2.4 43 5.5 NNE 28 37 15 20 1021.0 1021.1 0.0
22/11:00pm 14.5 7.6 2.4 44 5.4 NNE 28 39 15 21 1021.0 1021.1 0.0
22/10:30pm 13.1 6.7 5.3 59 3.6 NE 28 32 15 17 1021.2 1021.3 0.0
22/10:00pm 12.6 6.2 5.3 61 3.4 NE 28 35 15 19 1021.4 1021.5 0.0
22/09:30pm 12.6 6.2 5.1 60 3.5 NE 28 35 15 19 1021.5 1021.6 0.0
22/09:00pm 12.6 6.1 4.8 59 3.6 NE 28 35 15 19 1021.2 1021.3 0.0
22/08:30pm 12.0 6.0 5.2 63 3.1 NE 26 32 14 17 1021.4 1021.5 0.0
22/08:00pm 12.0 5.6 5.2 63 3.1 NE 28 32 15 17 1021.3 1021.4 0.0
22/07:30pm 11.9 6.3 5.3 64 3.0 NE 24 30 13 16 1021.5 1021.6 0.0
22/07:00pm 12.4 6.5 5.6 63 3.2 NE 26 30 14 16 1021.1 1021.2 0.0
22/06:30pm 12.9 7.6 6.7 66 3.0 ENE 24 28 13 15 1021.3 1021.4 0.0
22/06:00pm 13.5 8.6 6.8 64 3.2 NE 22 24 12 13 1021.2 1021.3 0.0
22/05:30pm 15.9 11.3 6.3 53 4.7 NE 20 24 11 13 1021.2 1021.3 0.0
22/05:00pm 17.5 12.6 5.1 44 6.0 NNE 20 24 11 13 1021.3 1021.4 0.0
22/04:30pm 19.0 13.1 4.0 37 7.1 N 24 32 13 17 1021.3 1021.4 0.0
22/04:00pm 19.6 13.7 3.7 35 7.5 N 24 35 13 19 1021.3 1021.4 0.0
22/03:30pm 20.1 14.2 3.8 34 7.7 N 24 35 13 19 1021.4 1021.5 0.0
22/03:00pm 20.4 15.5 5.2 37 7.4 N 20 32 11 17 1021.6 1021.7 0.0
22/02:30pm 20.4 13.8 4.4 35 7.7 N 28 35 15 19 1021.7 1021.8 0.0
22/02:00pm 20.8 14.9 5.6 37 7.5 N 26 39 14 21 1022.0 1022.1 0.0
22/01:30pm 20.6 14.7 5.8 38 7.3 N 26 35 14 19 1022.2 1022.3 0.0
22/01:00pm 20.4 14.1 5.6 38 7.3 N 28 37 15 20 1022.7 1022.8 0.0
22/12:30pm 20.2 13.4 5.1 37 7.4 N 30 37 16 20 1023.2 1023.3 0.0
22/12:00pm 19.9 13.3 5.9 40 6.9 NNE 30 35 16 19 1023.9 1024.0 0.0
22/11:30am 19.3 13.1 6.1 42 6.5 N 28 39 15 21 1024.4 1024.5 0.0
22/11:00am 18.5 12.0 6.4 45 6.0 N 30 37 16 20 1024.7 1024.8 0.0
22/10:30am 17.8 10.7 5.4 44 6.0 N 32 39 17 21 1025.0 1025.1 0.0
22/10:00am 17.0 10.7 5.6 47 5.5 N 28 37 15 20 1025.2 1025.3 0.0
22/09:30am 16.0 11.6 7.5 57 4.2 N 20 26 11 14 1025.4 1025.5 0.0
22/09:00am 14.5 9.2 6.6 59 3.8 N 24 32 13 17 1025.4 1025.5 0.0
22/08:30am 13.0 7.5 5.9 62 3.3 NNE 24 33 13 18 1025.3 1025.4 0.0
22/08:00am 11.2 5.9 5.1 66 2.8 NNE 22 30 12 16 1025.1 1025.2 0.0
22/07:30am 9.2 3.8 4.6 73 2.0 NE 22 28 12 15 1024.8 1024.9 0.0
22/07:00am 8.7 3.3 4.7 76 1.8 NE 22 26 12 14 1024.4 1024.5 0.0
22/06:30am 8.1 2.7 4.7 79 1.5 NE 22 26 12 14 1024.1 1024.2 0.0
22/06:00am 8.5 3.2 4.9 78 1.6 NE 22 26 12 14 1023.9 1024.0 0.0
22/05:30am 9.2 3.6 5.2 76 1.8 NE 24 30 13 16 1023.6 1023.7 0.0
22/05:00am 9.2 3.6 5.4 77 1.7 NE 24 28 13 15 1023.4 1023.5 0.0
22/04:30am 9.2 3.6 5.6 78 1.6 NE 24 30 13 16 1023.2 1023.3 0.0
22/04:00am 9.4 3.9 5.8 78 1.6 NE 24 28 13 15 1023.2 1023.3 0.0
22/03:30am 9.9 4.0 5.9 76 1.8 NE 26 33 14 18 1023.1 1023.2 0.0
22/03:00am 9.6 3.7 6.0 78 1.6 NE 26 33 14 18 1023.2 1023.3 0.0
22/02:30am 10.0 3.8 6.3 78 1.7 ENE 28 33 15 18 1023.3 1023.4 0.0
22/02:00am 10.1 4.3 6.4 78 1.7 ENE 26 32 14 17 1023.6 1023.7 0.0
22/01:30am 10.2 4.8 6.5 78 1.7 ENE 24 30 13 16 1023.9 1024.0 0.0
22/01:00am 10.7 5.4 6.8 77 1.8 ENE 24 30 13 16 1024.0 1024.1 0.0
22/12:30am 11.4 6.2 7.1 75 2.0 ENE 24 30 13 16 1024.2 1024.3 0.0
22/12:00am 11.6 6.5 7.5 76 2.0 NE 24 32 13 17 1024.4 1024.5 0.0
 
Date/Time
CST
Temp
°C
App
Temp
°C
Dew
Point
Rel
Hum
%
Delta-T
°C
Wind Press
QNH
hPa
Press
MSL
hPa
Rain
since 9 am
mm
Dir
 
Spd
km/h
Gust
km/h
Spd
kts
Gust
kts
21/11:30pm 11.0 5.6 7.9 81 1.5 ENE 26 32 14 17 1024.5 1024.6 0.0
21/11:00pm 10.1 5.0 7.5 84 1.2 ENE 24 28 13 15 1024.6 1024.7 0.0
21/10:30pm 10.4 5.3 7.6 83 1.3 ENE 24 28 13 15 1024.7 1024.8 0.0
21/10:00pm 10.7 5.8 8.3 85 1.2 ENE 24 30 13 16 1024.6 1024.7 0.0
21/09:30pm 10.1 5.6 8.7 91 0.7 E 22 26 12 14 1024.5 1024.6 0.0
21/09:00pm 9.5 4.9 8.3 92 0.6 E 22 26 12 14 1024.5 1024.6 0.0
21/08:30pm 9.3 4.7 8.2 93 0.5 E 22 24 12 13 1024.4 1024.5 0.0
21/08:00pm 9.0 5.3 7.8 92 0.6 E 17 20 9 11 1024.4 1024.5 0.0
21/07:30pm 9.4 5.3 8.0 91 0.7 E 19 20 10 11 1024.2 1024.3 0.0
21/07:00pm 9.5 5.2 7.8 89 0.8 E 20 22 11 12 1024.0 1024.1 0.0
21/06:30pm 10.1 6.0 7.9 86 1.1 E 19 20 10 11 1023.9 1024.0 0.0
21/06:00pm 11.4 7.9 8.6 83 1.4 E 17 19 9 10 1023.9 1024.0 0.0
21/05:30pm 13.4 10.4 9.3 76 2.1 E 15 17 8 9 1023.7 1023.8 0.0
21/05:00pm 14.7 12.3 9.9 73 2.5 E 13 15 7 8 1023.5 1023.6 0.0
21/04:30pm 16.3 13.9 9.9 66 3.3 E 13 17 7 9 1023.1 1023.2 0.0
21/04:00pm 16.4 13.4 9.1 62 3.8 ENE 15 20 8 11 1023.2 1023.3 0.0
21/03:30pm 18.1 15.9 9.2 56 4.6 ENE 11 17 6 9 1023.1 1023.2 0.0
21/03:00pm 17.8 15.9 8.9 56 4.6 WNW 9 13 5 7 1023.3 1023.4 0.0
21/02:30pm 18.6 16.9 9.7 56 4.7 NW 9 13 5 7 1023.4 1023.5 0.0
21/02:00pm 18.6 16.0 9.4 55 4.8 NE 13 20 7 11 1023.5 1023.6 0.0
21/01:30pm 17.7 14.0 8.0 53 4.9 N 17 24 9 13 1023.7 1023.8 0.0
21/01:00pm 17.0 13.7 7.9 55 4.6 NNE 15 22 8 12 1024.3 1024.4 0.0
21/12:30pm 17.5 13.2 7.8 53 4.9 NNE 20 24 11 13 1024.7 1024.8 0.0
21/12:00pm 17.1 12.8 7.7 54 4.7 NE 20 26 11 14 1025.0 1025.1 0.0
21/11:30am 16.8 12.6 8.2 57 4.4 ENE 20 26 11 14 1025.4 1025.5 0.0
21/11:00am 15.6 11.1 8.4 62 3.6 ENE 22 26 12 14 1025.7 1025.8 0.0
21/10:30am 14.6 10.4 8.3 66 3.1 ENE 20 26 11 14 1026.1 1026.2 0.0
21/10:00am 13.4 8.4 8.0 70 2.7 ENE 24 28 13 15 1026.2 1026.3 0.0
21/09:30am 12.2 7.4 7.3 72 2.4 ENE 22 30 12 16 1026.3 1026.4 0.0
21/09:00am 11.1 6.3 7.4 78 1.8 E 22 30 12 16 1026.4 1026.5 0.0
21/08:30am 9.6 4.6 6.5 81 1.4 E 22 30 12 16 1026.4 1026.5 0.0
21/08:00am 8.0 2.4 5.6 85 1.1 E 24 28 13 15 1026.2 1026.3 0.0
21/07:30am 6.2 0.8 4.7 90 0.6 E 22 28 12 15 1026.1 1026.2 0.0
21/07:00am 5.4 -0.1 4.2 92 0.5 E 22 26 12 14 1026.0 1026.1 0.0
21/06:30am 5.3 -0.2 4.1 92 0.5 E 22 26 12 14 1025.8 1025.9 0.0
21/06:00am 5.6 0.1 4.2 91 0.6 E 22 26 12 14 1025.6 1025.7 0.0
21/05:30am 5.3 0.2 4.0 91 0.5 E 20 24 11 13 1025.7 1025.8 0.0
21/05:00am 5.3 -0.2 4.0 91 0.5 E 22 26 12 14 1025.6 1025.7 0.0
21/04:30am 5.1 -0.4 3.9 92 0.5 E 22 24 12 13 1025.6 1025.7 0.0
21/04:00am 5.1 -0.4 3.8 91 0.5 E 22 26 12 14 1025.5 1025.6 0.0
21/03:30am 5.5 0.0 3.8 89 0.7 E 22 28 12 15 1025.7 1025.8 0.0
21/03:00am 5.7 0.2 4.0 89 0.7 E 22 28 12 15 1025.8 1025.9 0.0
21/02:30am 5.9 0.4 4.2 89 0.7 E 22 28 12 15 1025.9 1026.0 0.0
21/02:00am 5.7 0.6 4.2 90 0.6 E 20 24 11 13 1026.1 1026.2 0.0
21/01:30am 5.9 0.9 4.4 90 0.6 E 20 28 11 15 1026.2 1026.3 0.0
21/01:00am 6.2 1.2 4.7 90 0.7 E 20 24 11 13 1026.4 1026.5 0.0
21/12:30am 5.9 0.9 4.4 90 0.6 E 20 24 11 13 1026.4 1026.5 0.0
21/12:00am 6.5 1.6 5.0 90 0.7 E 20 24 11 13 1026.3 1026.4 0.0
 
Date/Time
CST
Temp
°C
App
Temp
°C
Dew
Point
Rel
Hum
%
Delta-T
°C
Wind Press
QNH
hPa
Press
MSL
hPa
Rain
since 9 am
mm
Dir
 
Spd
km/h
Gust
km/h
Spd
kts
Gust
kts
20/11:30pm 6.9 1.7 5.4 90 0.7 E 22 26 12 14 1026.4 1026.5 0.0
20/11:00pm 7.1 1.9 5.4 89 0.8 E 22 26 12 14 1026.4 1026.5 0.0
20/10:30pm 7.0 1.8 5.6 91 0.6 E 22 26 12 14 1026.5 1026.6 0.0
20/10:00pm 6.3 2.4 5.3 93 0.4 ESE 15 19 8 10 1026.7 1026.8 0.0
20/09:30pm 5.7 1.6 4.5 92 0.5 ESE 15 17 8 9 1026.7 1026.8 0.0
20/09:00pm 5.9 1.4 4.4 90 0.6 ESE 17 19 9 10 1026.7 1026.8 0.0
20/08:30pm 6.5 2.1 4.5 87 0.9 ESE 17 20 9 11 1026.5 1026.6 0.0
20/08:00pm 6.6 1.8 4.6 87 0.9 ESE 19 20 10 11 1026.4 1026.5 0.0
20/07:30pm 6.5 1.7 4.5 87 0.9 ESE 19 20 10 11 1026.3 1026.4 0.0
20/07:00pm 7.1 2.4 5.1 87 0.9 ESE 19 22 10 12 1026.2 1026.3 0.0
20/06:30pm 7.1 2.3 4.8 85 1.0 ESE 19 20 10 11 1026.2 1026.3 0.0
20/06:00pm 8.4 4.4 5.0 79 1.5 SE 15 17 8 9 1026.1 1026.2 0.0
20/05:30pm 10.1 5.8 5.3 72 2.2 SE 17 20 9 11 1025.8 1025.9 0.0
20/05:00pm 11.6 7.0 5.5 66 2.8 SE 19 22 10 12 1025.8 1025.9 0.0

Other Formats:

Comma delimited format used in spreadsheet applications
http://www.bom.gov.au/fwo/IDS60801/IDS60801.95659.axf

JavaScript Object Notation format (JSON) in row-major order
http://www.bom.gov.au/fwo/IDS60801/IDS60801.95659.json